New ZealandFixed distance
Tarawera 50 km Ultramarathon
14 Feb2026
Distance
52km
Finishers
1,739859 men880 women
Winning time
3:36:23h
Median pace
6.72km/h
Pace distribution
1,740 finishers · 3.78–14.42 km/h · mean 6.94
Every finisher ran the same 52 km course, so these paces are directly comparable.
Histogram of finisher pace. 1,740 finishers ranged from 3.78 to 14.42 kilometres per hour, with a mean of 6.94 and a median of 6.72. The busiest band is 6.5 to 7.0 kilometres per hour, with 264 finishers.
Results
Ranks 1,201–1,250 of 1,740
| Rank | Runner | Time | Pace | Cat. | Placing |
|---|---|---|---|---|---|
| 1201 | Nakano, AyakoJapanWoman | 8:33:53h | 6.07 | W45 | 534th F · 82nd W45 |
| 1202 | Hannah, KirstieNew ZealandWoman | 8:34:27h | 6.07 | W23 | 535th F · 175th W23 |
| 1203 | Sherlock, StephanieAustraliaWoman | 8:35:09h | 6.06 | W45 | 536th F · 83rd W45 |
| 1204 | Dewstow, RossNew ZealandMan | 8:35:17h | 6.05 | M70 | 667th M · 3rd M70 |
| 1205 | Ashton, JoanneAustraliaWoman | 8:35:31h | 6.05 | W40 | 537th F · 72nd W40 |
| 1206 | Solbach, FelixGermanyMan | 8:35:48h | 6.05 | M40 | 668th M · 86th M40 |
| 1207 | Hagen, MelanieGermanyWoman | 8:35:49h | 6.05 | W35 | 538th F · 93rd W35 |
| 1208 | Holloway, TammyNew ZealandWoman | 8:36:00h | 6.05 | W50 | 539th F · 49th W50 |
| 1209 | Hayvice, JaimeNew ZealandWoman | 8:36:06h | 6.04 | WU23 | 540th F · 14th WU23 |
| 1210 | Quinn, SiobhanNew ZealandWoman | 8:36:58h | 6.04 | W35 | 541st F · 94th W35 |
| 1211 | Lewis, PeterNew ZealandMan | 8:37:00h | 6.04 | M45 | 669th M · 89th M45 |
| 1212 | Pauley, GerardNew ZealandMan | 8:37:01h | 6.04 | M50 | 670th M · 61st M50 |
| 1213 | Hay, KauriNew ZealandMan | 8:37:12h | 6.03 | MU23 | 671st M · 21st MU23 |
| 1214 | Clements, JaniAustraliaWoman | 8:37:23h | 6.03 | W40 | 542nd F · 73rd W40 |
| 1215 | Roberts, LindaNew ZealandWoman | 8:37:30h | 6.03 | W55 | 543rd F · 35th W55 |
| 1216 | Morris, MichelleAustraliaWoman | 8:37:37h | 6.03 | W50 | 544th F · 50th W50 |
| 1217 | Botha, JacquesSouth AfricaMan | 8:38:12h | 6.02 | M40 | 672nd M · 87th M40 |
| 1218 | Tresidder, JessNew ZealandWoman | 8:38:26h | 6.02 | W40 | 545th F · 74th W40 |
| 1219 | Ong, PeiAustraliaWoman | 8:38:38h | 6.02 | W55 | 546th F · 36th W55 |
| 1220 | Khaw, Zhan-WeiMalaysiaMan | 8:38:41h | 6.01 | M35 | 673rd M · 105th M35 |
| 1221 | Sadeghi, NimaAustraliaMan | 8:39:07h | 6.01 | M40 | 674th M · 88th M40 |
| 1222 | Pedersen, BlakeSouth AfricaMan | 8:39:11h | 6.01 | M35 | 675th M · 106th M35 |
| 1223 | Dou, BoyiChinaWoman | 8:40:01h | 6.00 | W23 | 547th F · 176th W23 |
| 1224 | Forshaw, TroyNew ZealandMan | 8:40:28h | 6.00 | M35 | 676th M · 107th M35 |
| 1225 | Burns, BenAustraliaMan | 8:40:30h | 5.99 | M40 | 677th M · 89th M40 |
| 1226 | Baillie, BenNew ZealandMan | 8:40:53h | 5.99 | M40 | 678th M · 90th M40 |
| 1227 | Quarterman, CatherineNew ZealandWoman | 8:40:59h | 5.99 | W45 | 548th F · 84th W45 |
| 1228 | Bush, SimonNew ZealandMan | 8:41:06h | 5.99 | M45 | 679th M · 90th M45 |
| 1229 | Templeman, GrantNew ZealandMan | 8:41:07h | 5.99 | M55 | 680th M · 41st M55 |
| 1230 | Lienau, LauraAustraliaWoman | 8:41:43h | 5.98 | W45 | 549th F · 85th W45 |
| 1231 | Bertoncello, KimAustraliaWoman | 8:41:55h | 5.98 | W50 | 550th F · 51st W50 |
| 1232 | Pham, NganAustraliaWoman | 8:42:03h | 5.98 | W23 | 551st F · 177th W23 |
| 1233 | Pedraza, DiegoColombiaMan | 8:42:40h | 5.97 | M23 | 681st M · 237th M23 |
| 1234 | Innes-Smith, NeilAustraliaMan | 8:42:57h | 5.97 | M45 | 682nd M · 91st M45 |
| 1235 | O'Connell, AnnaNew ZealandWoman | 8:43:00h | 5.97 | W23 | 552nd F · 178th W23 |
| 1236 | Brown, AngusNetherlandsMan | 8:43:02h | 5.96 | M55 | 683rd M · 42nd M55 |
| 1237 | Sayyah, RezaAustraliaMan | 8:43:05h | 5.96 | M55 | 684th M · 43rd M55 |
| 1238 | Noble, CourtneyNew ZealandWoman | 8:43:31h | 5.96 | W23 | 553rd F · 179th W23 |
| 1239 | Andrew, KateNew ZealandWoman | 8:44:10h | 5.95 | W50 | 554th F · 52nd W50 |
| 1240 | Mcintosh, JonAustraliaMan | 8:44:11h | 5.95 | M45 | 685th M · 92nd M45 |
| 1241 | Kerton, AllenGreat BritainMan | 8:44:36h | 5.95 | M65 | 686th M · 12th M65 |
| 1242 | Kruyen, BrandonNew ZealandMan | 8:45:05h | 5.94 | M50 | 687th M · 62nd M50 |
| 1243 | Dutton, KerynNew ZealandWoman | 8:45:29h | 5.94 | W35 | 555th F · 95th W35 |
| 1244 | Mclaughlin, SarahAustraliaWoman | 8:45:47h | 5.93 | W40 | 556th F · 75th W40 |
| 1245 | Boye, PipNew ZealandWoman | 8:46:11h | 5.93 | W55 | 557th F · 37th W55 |
| 1246 | Facchinetti, EmanueleItalyMan | 8:46:14h | 5.93 | M23 | 688th M · 238th M23 |
| 1247 | Hosking, RichardNew ZealandMan | 8:46:44h | 5.92 | M35 | 689th M · 108th M35 |
| 1248 | Smith, DianaNew ZealandWoman | 8:46:49h | 5.92 | W65 | 558th F · 6th W65 |
| 1248 | Field, SueNew ZealandWoman | 8:46:49h | 5.92 | W60 | 558th F · 15th W60 |
| 1250 | McLeod, SarahUnited StatesWoman | 8:46:51h | 5.92 | W35 | 560th F · 96th W35 |
- 1201Nakano, AyakoJapanWoman534th F · 82nd W45Time8:33:53hPace6.07Cat.W45
- 1202Hannah, KirstieNew ZealandWoman535th F · 175th W23Time8:34:27hPace6.07Cat.W23
- 1203Sherlock, StephanieAustraliaWoman536th F · 83rd W45Time8:35:09hPace6.06Cat.W45
- 1204Dewstow, RossNew ZealandMan667th M · 3rd M70Time8:35:17hPace6.05Cat.M70
- 1205Ashton, JoanneAustraliaWoman537th F · 72nd W40Time8:35:31hPace6.05Cat.W40
- 1206Solbach, FelixGermanyMan668th M · 86th M40Time8:35:48hPace6.05Cat.M40
- 1207Hagen, MelanieGermanyWoman538th F · 93rd W35Time8:35:49hPace6.05Cat.W35
- 1208Holloway, TammyNew ZealandWoman539th F · 49th W50Time8:36:00hPace6.05Cat.W50
- 1209Hayvice, JaimeNew ZealandWoman540th F · 14th WU23Time8:36:06hPace6.04Cat.WU23
- 1210Quinn, SiobhanNew ZealandWoman541st F · 94th W35Time8:36:58hPace6.04Cat.W35
- 1211Lewis, PeterNew ZealandMan669th M · 89th M45Time8:37:00hPace6.04Cat.M45
- 1212Pauley, GerardNew ZealandMan670th M · 61st M50Time8:37:01hPace6.04Cat.M50
- 1213Hay, KauriNew ZealandMan671st M · 21st MU23Time8:37:12hPace6.03Cat.MU23
- 1214Clements, JaniAustraliaWoman542nd F · 73rd W40Time8:37:23hPace6.03Cat.W40
- 1215Roberts, LindaNew ZealandWoman543rd F · 35th W55Time8:37:30hPace6.03Cat.W55
- 1216Morris, MichelleAustraliaWoman544th F · 50th W50Time8:37:37hPace6.03Cat.W50
- 1217Botha, JacquesSouth AfricaMan672nd M · 87th M40Time8:38:12hPace6.02Cat.M40
- 1218Tresidder, JessNew ZealandWoman545th F · 74th W40Time8:38:26hPace6.02Cat.W40
- 1219Ong, PeiAustraliaWoman546th F · 36th W55Time8:38:38hPace6.02Cat.W55
- 1220Khaw, Zhan-WeiMalaysiaMan673rd M · 105th M35Time8:38:41hPace6.01Cat.M35
- 1221Sadeghi, NimaAustraliaMan674th M · 88th M40Time8:39:07hPace6.01Cat.M40
- 1222Pedersen, BlakeSouth AfricaMan675th M · 106th M35Time8:39:11hPace6.01Cat.M35
- 1223Dou, BoyiChinaWoman547th F · 176th W23Time8:40:01hPace6.00Cat.W23
- 1224Forshaw, TroyNew ZealandMan676th M · 107th M35Time8:40:28hPace6.00Cat.M35
- 1225Burns, BenAustraliaMan677th M · 89th M40Time8:40:30hPace5.99Cat.M40
- 1226Baillie, BenNew ZealandMan678th M · 90th M40Time8:40:53hPace5.99Cat.M40
- 1227Quarterman, CatherineNew ZealandWoman548th F · 84th W45Time8:40:59hPace5.99Cat.W45
- 1228Bush, SimonNew ZealandMan679th M · 90th M45Time8:41:06hPace5.99Cat.M45
- 1229Templeman, GrantNew ZealandMan680th M · 41st M55Time8:41:07hPace5.99Cat.M55
- 1230Lienau, LauraAustraliaWoman549th F · 85th W45Time8:41:43hPace5.98Cat.W45
- 1231Bertoncello, KimAustraliaWoman550th F · 51st W50Time8:41:55hPace5.98Cat.W50
- 1232Pham, NganAustraliaWoman551st F · 177th W23Time8:42:03hPace5.98Cat.W23
- 1233Pedraza, DiegoColombiaMan681st M · 237th M23Time8:42:40hPace5.97Cat.M23
- 1234Innes-Smith, NeilAustraliaMan682nd M · 91st M45Time8:42:57hPace5.97Cat.M45
- 1235O'Connell, AnnaNew ZealandWoman552nd F · 178th W23Time8:43:00hPace5.97Cat.W23
- 1236Brown, AngusNetherlandsMan683rd M · 42nd M55Time8:43:02hPace5.96Cat.M55
- 1237Sayyah, RezaAustraliaMan684th M · 43rd M55Time8:43:05hPace5.96Cat.M55
- 1238Noble, CourtneyNew ZealandWoman553rd F · 179th W23Time8:43:31hPace5.96Cat.W23
- 1239Andrew, KateNew ZealandWoman554th F · 52nd W50Time8:44:10hPace5.95Cat.W50
- 1240Mcintosh, JonAustraliaMan685th M · 92nd M45Time8:44:11hPace5.95Cat.M45
- 1241Kerton, AllenGreat BritainMan686th M · 12th M65Time8:44:36hPace5.95Cat.M65
- 1242Kruyen, BrandonNew ZealandMan687th M · 62nd M50Time8:45:05hPace5.94Cat.M50
- 1243Dutton, KerynNew ZealandWoman555th F · 95th W35Time8:45:29hPace5.94Cat.W35
- 1244Mclaughlin, SarahAustraliaWoman556th F · 75th W40Time8:45:47hPace5.93Cat.W40
- 1245Boye, PipNew ZealandWoman557th F · 37th W55Time8:46:11hPace5.93Cat.W55
- 1246Facchinetti, EmanueleItalyMan688th M · 238th M23Time8:46:14hPace5.93Cat.M23
- 1247Hosking, RichardNew ZealandMan689th M · 108th M35Time8:46:44hPace5.92Cat.M35
- 1248Smith, DianaNew ZealandWoman558th F · 6th W65Time8:46:49hPace5.92Cat.W65
- 1248Field, SueNew ZealandWoman558th F · 15th W60Time8:46:49hPace5.92Cat.W60
- 1250McLeod, SarahUnited StatesWoman560th F · 96th W35Time8:46:51hPace5.92Cat.W35
Showing ranks 1,201–1,250 of 1,740